Time;durP1;ratioP1;P1;durP2;ratioP2;P2;SDS_P1;SDS_P2;PMS_P1;PMS_P2;Temp;Humidity;BMP_temperature;BMP_pressure;BME280_temperature;BME280_humidity;BME280_pressure;Samples;Min_cycle;Max_cycle;Signal;HPM_P1;HPM_P2
2022/02/08 00:00:49;;;;;;;3.60;2.20;;;;;;;0.56;84.85;98019.83;104938;1271;61245;-23
2022/02/08 00:03:18;;;;;;;3.10;1.80;;;;;;;0.32;85.80;98026.99;104908;1271;74656;-23
2022/02/08 00:06:01;;;;;;;2.50;1.50;;;;;;;0.28;86.24;98030.60;104879;1274;76165;-23
2022/02/08 00:08:30;;;;;;;2.70;1.60;;;;;;;0.24;86.70;98034.58;104971;1271;73768;-23
2022/02/08 00:10:58;;;;;;;2.00;1.70;;;;;;;0.48;85.77;98042.45;105082;1271;61105;-23
2022/02/08 00:13:27;;;;;;;5.40;2.20;;;;;;;0.62;85.14;98045.93;105074;1271;61178;-23
2022/02/08 00:15:57;;;;;;;3.70;1.80;;;;;;;0.61;84.85;98050.45;105133;1271;74095;-23
2022/02/08 00:18:25;;;;;;;2.90;2.30;;;;;;;0.31;86.11;98054.81;105133;1271;76204;-23
2022/02/08 00:20:54;;;;;;;3.80;2.10;;;;;;;0.29;87.01;98054.13;105086;1271;74357;-23
2022/02/08 00:23:22;;;;;;;3.40;2.10;;;;;;;0.56;85.88;98052.59;105130;1271;61099;-23
2022/02/08 00:25:50;;;;;;;4.20;2.00;;;;;;;0.84;84.23;98063.38;105066;1271;61050;-23
2022/02/08 00:28:19;;;;;;;3.60;2.20;;;;;;;0.58;85.29;98061.23;105115;1271;75451;-23
2022/02/08 00:30:47;;;;;;;3.10;2.00;;;;;;;0.31;86.39;98064.23;104975;1274;76119;-23
2022/02/08 00:33:16;;;;;;;3.10;2.00;;;;;;;0.30;86.92;98067.02;105117;1271;74331;-23
2022/02/08 00:35:44;;;;;;;2.80;1.90;;;;;;;0.79;84.58;98071.97;105059;1271;62067;-23
2022/02/08 00:38:12;;;;;;;4.10;2.20;;;;;;;0.54;85.44;98067.23;104962;1274;61243;-23
2022/02/08 00:40:43;;;;;;;5.50;2.10;;;;;;;0.44;85.63;98069.17;105024;1271;74221;-23
2022/02/08 00:43:11;;;;;;;4.00;2.00;;;;;;;0.28;86.38;98070.37;105001;1274;76169;-23
2022/02/08 00:46:47;;;;;;;4.20;2.20;;;;;;;0.35;86.14;98067.59;105135;1271;74363;-22
2022/02/08 00:48:43;;;;;;;5.40;2.70;;;;;;;0.67;84.81;98071.98;104833;1273;61139;-22
2022/02/08 00:51:12;;;;;;;3.00;1.90;;;;;;;0.47;85.35;98073.44;104884;1274;61201;-22
2022/02/08 00:53:41;;;;;;;3.20;2.00;;;;;;;0.42;85.54;98074.58;105164;1272;75513;-22
2022/02/08 00:56:10;;;;;;;6.20;1.90;;;;;;;0.13;86.73;98068.14;105151;1271;75827;-22
2022/02/08 00:58:38;;;;;;;4.60;2.40;;;;;;;0.27;86.84;98075.40;104998;1274;74440;-22
2022/02/08 01:01:07;;;;;;;3.70;1.90;;;;;;;0.53;85.75;98076.86;105008;1274;61213;-22
2022/02/08 01:03:35;;;;;;;2.90;1.90;;;;;;;0.56;84.98;98077.89;104968;1272;61992;-22
2022/02/08 01:06:06;;;;;;;2.80;2.00;;;;;;;0.28;85.80;98080.45;105124;1274;74593;-23
2022/02/08 01:08:37;;;;;;;6.10;2.50;;;;;;;0.19;86.28;98084.37;105000;1274;73393;-22
2022/02/08 01:11:08;;;;;;;2.40;1.60;;;;;;;0.37;85.73;98088.17;104792;1274;73640;-22
2022/02/08 01:13:38;;;;;;;3.70;1.80;;;;;;;0.64;84.29;98089.08;104844;1274;62428;-22
2022/02/08 01:16:07;;;;;;;3.70;1.90;;;;;;;0.41;84.73;98096.65;104890;1274;61076;-22
2022/02/08 01:18:41;;;;;;;3.10;2.10;;;;;;;0.15;85.94;98096.15;105197;1273;74335;-23
2022/02/08 01:21:09;;;;;;;4.50;1.70;;;;;;;0.18;86.12;98103.67;105062;1272;75861;-22
2022/02/08 01:23:38;;;;;;;3.20;1.50;;;;;;;0.62;84.38;98108.29;104970;1274;73484;-22
2022/02/08 01:26:13;;;;;;;2.00;1.80;;;;;;;0.62;83.88;98119.04;104795;1274;61109;-22
2022/02/08 01:28:50;;;;;;;4.20;1.70;;;;;;;0.46;84.42;98119.42;104735;1274;61691;-22
2022/02/08 01:31:20;;;;;;;4.00;2.00;;;;;;;0.28;84.97;98126.04;104614;1274;73684;-22
2022/02/08 01:39:11;;;;;;;4.20;1.70;;;;;;;0.51;84.29;98134.55;104793;1272;61023;-22
2022/02/08 01:44:23;;;;;;;3.30;1.40;;;;;;;-0.02;86.32;98139.05;104682;1273;75598;-22
2022/02/08 01:47:03;;;;;;;2.30;1.60;;;;;;;0.26;85.22;98142.38;104810;1274;75194;-22
2022/02/08 01:49:35;;;;;;;2.90;1.70;;;;;;;0.50;84.20;98150.29;104875;1274;74407;-21
2022/02/08 01:52:06;;;;;;;4.70;2.40;;;;;;;0.41;84.19;98146.34;104991;1274;61787;-23
2022/02/08 01:54:35;;;;;;;2.90;1.80;;;;;;;0.18;84.88;98155.42;104480;1273;62182;-22
2022/02/08 01:57:04;;;;;;;4.20;2.10;;;;;;;-0.11;85.98;98156.59;105142;1274;73772;-22
2022/02/08 01:59:33;;;;;;;2.70;1.60;;;;;;;-0.00;85.68;98163.18;104837;1274;76069;-22
2022/02/08 02:02:01;;;;;;;4.30;2.20;;;;;;;0.28;84.58;98168.05;104869;1274;74692;-23
2022/02/08 02:04:30;;;;;;;3.30;2.00;;;;;;;0.11;84.89;98168.27;104767;1274;61026;-23
2022/02/08 02:07:00;;;;;;;12.00;2.30;;;;;;;-0.04;85.42;98178.41;104889;1272;62051;-23
2022/02/08 02:09:29;;;;;;;5.40;1.80;;;;;;;-0.08;85.76;98179.80;104638;1274;75600;-23
2022/02/08 02:12:00;;;;;;;4.90;1.70;;;;;;;0.28;84.42;98185.94;104932;1274;74920;-23
2022/02/08 02:14:35;;;;;;;3.80;1.70;;;;;;;0.36;83.36;98179.92;104896;1272;74406;-23
2022/02/08 02:17:04;;;;;;;5.40;1.60;;;;;;;0.36;83.35;98191.84;104792;1274;61881;-23
2022/02/08 02:19:32;;;;;;;4.00;1.80;;;;;;;0.11;84.19;98196.92;104795;1274;62037;-23
2022/02/08 02:22:01;;;;;;;4.00;1.90;;;;;;;-0.01;84.68;98202.98;105043;1274;74031;-23
2022/02/08 02:24:30;;;;;;;4.30;1.80;;;;;;;0.22;83.93;98211.89;104751;1274;76259;-23
2022/02/08 02:26:59;;;;;;;7.90;2.00;;;;;;;0.37;83.32;98216.56;104778;1271;73481;-23
2022/02/08 02:29:29;;;;;;;5.60;2.00;;;;;;;0.27;83.52;98220.88;104714;1274;61271;-24
2022/02/08 02:31:59;;;;;;;3.00;1.60;;;;;;;0.15;83.87;98221.30;104684;1274;61293;-23
2022/02/08 02:34:28;;;;;;;4.90;1.90;;;;;;;0.02;84.11;98225.19;105119;1274;75425;-23
2022/02/08 02:36:59;;;;;;;1.90;1.60;;;;;;;0.13;84.36;98229.42;105110;1273;74802;-24
2022/02/08 02:39:29;;;;;;;5.40;1.80;;;;;;;0.47;82.72;98226.64;104771;1274;72712;-23
2022/02/08 02:41:59;;;;;;;4.10;2.00;;;;;;;0.28;83.07;98233.58;105103;1274;62122;-24
2022/02/08 02:44:27;;;;;;;2.90;2.10;;;;;;;0.12;83.69;98230.34;104687;1274;61055;-23
2022/02/08 02:46:56;;;;;;;2.70;1.50;;;;;;;-0.07;84.34;98237.42;104676;1274;75340;-23
2022/02/08 02:49:27;;;;;;;2.10;1.80;;;;;;;0.11;83.78;98240.12;104687;1274;76479;-24
2022/02/08 02:52:06;;;;;;;4.50;2.10;;;;;;;0.34;82.46;98246.09;104746;1272;74518;-24
2022/02/08 02:54:38;;;;;;;3.70;1.70;;;;;;;0.13;83.00;98253.64;104628;1274;62318;-24
2022/02/08 02:57:07;;;;;;;4.70;2.10;;;;;;;0.10;83.00;98261.81;104739;1274;62222;-24
2022/02/08 02:59:37;;;;;;;4.70;1.90;;;;;;;-0.12;83.62;98264.45;104870;1274;74270;-24
2022/02/08 03:18:35;;;;;;;5.90;1.30;;;;;;;0.21;82.04;98290.14;105002;1274;73287;-24
2022/02/08 03:21:07;;;;;;;3.50;1.70;;;;;;;0.22;81.65;98293.48;105021;1274;62101;-24
2022/02/08 03:23:36;;;;;;;4.00;1.70;;;;;;;0.09;81.92;98296.35;104628;1274;61162;-24
2022/02/08 03:26:07;;;;;;;5.70;1.60;;;;;;;0.01;82.73;98308.86;104737;1274;75450;-24
2022/02/08 03:28:42;;;;;;;3.00;1.40;;;;;;;0.04;82.17;98305.33;105048;1272;74704;-24
2022/02/08 03:31:17;;;;;;;3.00;1.70;;;;;;;0.31;80.98;98303.98;104807;1274;72258;-24
2022/02/08 03:33:46;;;;;;;3.40;1.50;;;;;;;0.36;80.30;98299.96;104702;1273;61033;-24
2022/02/08 03:36:16;;;;;;;4.00;1.80;;;;;;;0.03;80.94;98306.89;104870;1271;61770;-24
2022/02/08 03:38:58;;;;;;;4.60;1.70;;;;;;;-0.13;82.08;98313.34;104819;1271;73397;-24
2022/02/08 03:41:35;;;;;;;3.00;1.70;;;;;;;-0.28;82.85;98319.33;104593;1277;75041;-24
2022/02/08 03:44:04;;;;;;;5.40;2.00;;;;;;;0.05;82.03;98326.77;104773;1271;73491;-24
2022/02/08 03:46:33;;;;;;;5.80;1.90;;;;;;;0.25;80.55;98320.48;104673;1271;61231;-24
2022/02/08 03:49:01;;;;;;;6.40;2.60;;;;;;;0.24;80.76;98325.64;104889;1271;61125;-24
2022/02/08 03:51:36;;;;;;;4.70;2.30;;;;;;;-0.02;81.35;98324.20;104992;1271;75209;-24
2022/02/08 03:54:08;;;;;;;3.60;2.10;;;;;;;-0.02;81.63;98326.80;105102;1271;75950;-24
2022/02/08 03:56:38;;;;;;;5.00;2.00;;;;;;;-0.24;82.80;98327.52;105147;1271;73383;-24
2022/02/08 03:59:07;;;;;;;5.20;2.40;;;;;;;0.15;81.31;98336.02;105132;1271;61402;-24
2022/02/08 04:02:05;;;;;;;7.10;2.70;;;;;;;0.16;81.05;98335.80;105144;1271;61136;-24
2022/02/08 04:07:08;;;;;;;2.50;1.70;;;;;;;-0.01;80.95;98343.11;105190;1271;74447;-24
2022/02/08 04:09:38;;;;;;;4.30;2.10;;;;;;;-0.09;81.51;98346.94;105130;1271;74492;-23
2022/02/08 04:12:15;;;;;;;2.40;2.10;;;;;;;-0.09;81.22;98350.31;105093;1271;61127;-24
2022/02/08 04:17:54;;;;;;;3.80;2.20;;;;;;;0.22;79.74;98359.56;105113;1274;75302;-24
2022/02/08 04:42:43;;;;;;;8.90;2.90;;;;;;;-0.11;82.97;98393.08;104813;1271;62399;-24
2022/02/08 04:45:28;;;;;;;4.80;3.00;;;;;;;0.14;82.26;98402.61;104876;1271;75765;-24
2022/02/08 04:48:06;;;;;;;7.40;3.00;;;;;;;-0.03;82.71;98405.66;104912;1271;74827;-24
2022/02/08 04:50:36;;;;;;;8.40;2.70;;;;;;;-0.15;83.29;98408.98;104813;1271;74363;-24
2022/02/08 04:53:13;;;;;;;4.80;2.40;;;;;;;-0.30;84.23;98408.30;104930;1271;61103;-24
2022/02/08 04:55:53;;;;;;;4.40;2.50;;;;;;;-0.08;83.81;98412.23;104959;1271;61034;-24
2022/02/08 04:58:32;;;;;;;7.20;2.80;;;;;;;0.23;82.22;98420.46;105021;1271;75609;-24
2022/02/08 05:01:08;;;;;;;7.40;2.30;;;;;;;0.07;82.63;98417.29;104784;1271;74523;-24
2022/02/08 05:34:49;;;;;;;5.70;3.70;;;;;;;-0.30;84.57;98471.07;105001;1271;61510;-24
2022/02/08 05:45:33;;;;;;;6.70;3.10;;;;;;;-0.17;83.43;98479.89;104956;1271;72944;-24
2022/02/08 05:48:00;;;;;;;10.00;3.50;;;;;;;-0.29;83.63;98477.01;104970;1271;61128;-24
2022/02/08 05:55:28;;;;;;;8.30;3.30;;;;;;;0.14;80.80;98488.98;104922;1271;75965;-24
2022/02/08 05:57:57;;;;;;;6.10;3.70;;;;;;;-0.13;81.53;98492.50;104849;1274;74455;-24
2022/02/08 06:00:27;;;;;;;6.80;3.60;;;;;;;-0.31;82.16;98492.59;104881;1271;61150;-25
2022/02/08 06:03:07;;;;;;;5.80;3.10;;;;;;;-0.24;81.86;98503.89;104797;1271;61037;-23
2022/02/08 06:05:45;;;;;;;8.30;3.00;;;;;;;0.10;80.97;98504.05;104933;1271;75388;-23
2022/02/08 06:08:13;;;;;;;5.30;3.30;;;;;;;0.01;81.39;98513.70;105109;1271;76003;-24
2022/02/08 06:11:05;;;;;;;7.70;3.10;;;;;;;-0.16;82.11;98513.09;105113;1271;74532;-24
2022/02/08 06:13:34;;;;;;;6.10;3.50;;;;;;;-0.30;83.16;98516.80;105125;1271;61070;-24
2022/02/08 06:16:04;;;;;;;5.30;3.20;;;;;;;-0.30;83.18;98518.85;105068;1274;62108;-24
2022/02/08 06:18:36;;;;;;;6.60;3.30;;;;;;;0.05;81.77;98519.46;105015;1271;75800;-25
2022/02/08 06:21:04;;;;;;;6.50;3.20;;;;;;;0.29;80.36;98520.41;104783;1272;75282;-24
2022/02/08 06:23:33;;;;;;;8.30;3.10;;;;;;;0.17;80.24;98529.69;105125;1274;74094;-24
2022/02/08 06:26:01;;;;;;;7.80;3.00;;;;;;;-0.11;80.40;98523.45;105027;1274;61132;-23
2022/02/08 06:28:30;;;;;;;6.30;2.80;;;;;;;-0.26;81.56;98535.70;105077;1271;61187;-24
2022/02/08 06:30:58;;;;;;;6.50;3.00;;;;;;;-0.18;81.68;98542.73;105033;1271;75493;-24
2022/02/08 06:33:31;;;;;;;4.90;2.60;;;;;;;0.05;80.77;98543.33;104733;1271;76146;-24
2022/02/08 06:35:59;;;;;;;8.10;3.00;;;;;;;0.20;79.99;98553.59;104884;1271;74378;-24
2022/02/08 06:38:28;;;;;;;6.40;2.60;;;;;;;0.16;80.38;98556.18;104643;1274;61141;-24
2022/02/08 06:40:56;;;;;;;7.80;2.10;;;;;;;-0.04;81.18;98564.26;104741;1271;61272;-24
2022/02/08 06:43:29;;;;;;;10.00;3.80;;;;;;;-0.23;81.99;98565.27;104934;1271;75541;-24
2022/02/08 06:46:00;;;;;;;6.30;2.80;;;;;;;-0.32;82.53;98559.70;104640;1274;75090;-24
2022/02/08 06:48:28;;;;;;;4.20;3.00;;;;;;;0.11;80.91;98564.23;104896;1271;73408;-24
2022/02/08 06:50:57;;;;;;;7.40;3.30;;;;;;;0.09;80.71;98566.23;104770;1271;229683;-24
2022/02/08 06:53:26;;;;;;;6.20;3.20;;;;;;;0.07;81.07;98575.34;104943;1271;62051;-24
2022/02/08 06:55:56;;;;;;;7.10;3.10;;;;;;;-0.12;81.80;98572.65;104928;1271;74578;-24
2022/02/08 06:58:30;;;;;;;7.80;3.20;;;;;;;-0.21;82.16;98572.86;104927;1271;76019;-24
2022/02/08 07:01:03;;;;;;;7.00;3.20;;;;;;;-0.04;81.94;98581.83;104782;1272;74552;-24
2022/02/08 07:03:31;;;;;;;5.00;3.20;;;;;;;0.24;80.56;98581.55;104870;1271;61144;-23
2022/02/08 07:06:02;;;;;;;8.80;3.20;;;;;;;0.10;80.85;98577.29;104924;1271;61049;-23
2022/02/08 07:08:50;;;;;;;6.90;3.50;;;;;;;0.04;80.65;98574.14;104874;1271;75877;-23
2022/02/08 07:11:18;;;;;;;9.10;3.70;;;;;;;-0.09;81.47;98580.69;104988;1271;75767;-23
2022/02/08 07:13:48;;;;;;;8.10;3.30;;;;;;;-0.21;80.96;98575.59;104978;1274;72570;-23
2022/02/08 07:16:17;;;;;;;6.90;3.40;;;;;;;-0.09;80.79;98585.14;104984;1274;61622;-23
2022/02/08 07:18:46;;;;;;;10.90;2.40;;;;;;;0.22;79.02;98590.23;105124;1271;61165;-24
2022/02/08 07:21:15;;;;;;;11.40;3.10;;;;;;;0.24;78.15;98585.17;104968;1271;74597;-25
2022/02/08 07:23:43;;;;;;;3.70;2.10;;;;;;;0.14;78.45;98595.02;105178;1271;75999;-23
2022/02/08 07:26:12;;;;;;;6.10;3.10;;;;;;;0.06;78.65;98598.81;105010;1271;74373;-24
2022/02/08 07:28:44;;;;;;;6.30;3.00;;;;;;;-0.04;78.31;98594.49;105012;1271;61157;-24
2022/02/08 07:31:23;;;;;;;5.70;2.60;;;;;;;-0.12;78.74;98601.48;104976;1271;62095;-24
2022/02/08 07:38:57;;;;;;;5.20;1.80;;;;;;;0.25;77.65;98611.94;105122;1271;72272;-24
2022/02/08 07:41:36;;;;;;;12.00;3.20;;;;;;;0.17;78.50;98617.09;105154;1271;61076;-23
2022/02/08 07:44:09;;;;;;;5.50;2.40;;;;;;;0.02;78.52;98608.20;105154;1271;61076;-23
2022/02/08 07:46:52;;;;;;;4.60;2.30;;;;;;;-0.04;78.71;98623.14;104789;1271;75589;-23
2022/02/08 07:49:23;;;;;;;5.30;2.20;;;;;;;0.23;77.26;98624.67;104945;1271;75888;-23
2022/02/08 07:51:52;;;;;;;4.10;2.40;;;;;;;0.42;75.78;98626.18;104693;1271;72940;-23
2022/02/08 07:54:20;;;;;;;3.90;2.30;;;;;;;0.37;76.04;98636.15;104833;1271;61265;-23
2022/02/08 07:56:50;;;;;;;7.20;2.80;;;;;;;0.24;76.48;98636.02;104978;1271;61928;-23
2022/02/08 07:59:18;;;;;;;4.90;2.90;;;;;;;0.03;76.94;98646.58;104888;1271;75660;-23
2022/02/08 08:01:46;;;;;;;5.00;2.70;;;;;;;0.00;77.49;98648.70;104816;1274;75921;-24
2022/02/08 08:04:15;;;;;;;3.60;2.50;;;;;;;0.01;77.87;98655.34;104950;1271;74411;-25
2022/02/08 08:06:44;;;;;;;6.60;2.90;;;;;;;0.54;76.36;98660.31;104890;1271;61045;-25
2022/02/08 08:09:12;;;;;;;9.90;2.60;;;;;;;0.56;75.91;98663.64;104928;1271;62036;-24
2022/02/08 08:11:44;;;;;;;4.70;2.30;;;;;;;0.45;76.43;98662.94;104918;1271;75412;-25
2022/02/08 08:14:13;;;;;;;4.90;2.50;;;;;;;0.18;76.98;98664.00;104932;1271;74540;-24
2022/02/08 08:16:52;;;;;;;5.50;2.30;;;;;;;0.24;77.35;98672.27;104893;1271;74388;-24
2022/02/08 08:19:36;;;;;;;4.80;1.60;;;;;;;0.19;77.29;98679.80;104733;1271;61049;-24
2022/02/08 08:22:08;;;;;;;2.90;2.10;;;;;;;0.41;76.54;98680.04;105139;1271;61323;-24
2022/02/08 08:24:37;;;;;;;4.40;1.90;;;;;;;0.68;74.89;98680.67;104808;1271;75513;-24
2022/02/08 08:27:06;;;;;;;4.60;2.00;;;;;;;0.54;75.18;98688.47;104821;1272;73758;-24
2022/02/08 08:29:35;;;;;;;5.00;2.50;;;;;;;0.35;75.42;98696.71;104897;1271;74468;-23
2022/02/08 08:32:10;;;;;;;6.70;2.60;;;;;;;0.32;76.88;98705.38;104793;1271;61841;-23
2022/02/08 08:34:40;;;;;;;5.40;2.70;;;;;;;0.32;76.55;98706.59;104913;1271;61038;-23
2022/02/08 08:37:08;;;;;;;6.00;2.60;;;;;;;0.03;77.55;98704.23;104894;1271;74657;-23
2022/02/08 08:39:49;;;;;;;4.30;2.10;;;;;;;0.38;77.30;98710.02;104897;1271;76410;-22
2022/02/08 08:50:58;;;;;;;6.50;2.60;;;;;;;0.45;76.16;98722.04;105152;1274;74792;-23
2022/02/08 08:53:32;;;;;;;4.90;2.10;;;;;;;0.33;76.65;98715.05;105150;1271;74180;-23
2022/02/08 08:56:00;;;;;;;4.30;2.20;;;;;;;0.29;76.58;98717.44;104993;1271;73565;-23
2022/02/08 08:58:31;;;;;;;6.30;1.80;;;;;;;0.68;75.65;98724.07;104920;1271;61425;-23
2022/02/08 09:01:00;;;;;;;3.40;2.10;;;;;;;0.95;74.23;98730.68;104974;1271;61132;-23
2022/02/08 09:03:29;;;;;;;5.00;2.20;;;;;;;1.02;73.82;98728.67;105131;1271;75394;-23
2022/02/08 09:05:57;;;;;;;3.80;1.90;;;;;;;0.70;74.47;98729.94;104892;1274;75903;-23
2022/02/08 09:08:30;;;;;;;4.30;1.90;;;;;;;0.69;75.12;98729.65;104900;1271;74294;-24
2022/02/08 09:11:08;;;;;;;5.80;1.90;;;;;;;0.43;75.50;98734.74;104920;1271;61131;-23
2022/02/08 09:13:44;;;;;;;7.40;1.80;;;;;;;0.33;76.00;98733.17;104922;1274;61069;-23
2022/02/08 09:27:42;;;;;;;6.30;2.40;;;;;;;0.61;74.67;98737.88;104424;1271;61194;-23
2022/02/08 09:30:11;;;;;;;7.50;3.10;;;;;;;0.36;76.52;98734.88;105117;1271;75512;-23
2022/02/08 09:32:47;;;;;;;6.40;2.20;;;;;;;0.44;75.60;98730.77;105032;1274;76111;-23
2022/02/08 09:35:17;;;;;;;5.30;2.20;;;;;;;0.56;74.75;98730.09;105057;1271;74140;-23
2022/02/08 09:37:45;;;;;;;6.50;2.40;;;;;;;0.38;74.37;98729.84;104727;1274;61037;-22
2022/02/08 09:40:21;;;;;;;4.00;2.10;;;;;;;0.68;72.90;98724.39;105145;1274;61168;-23
2022/02/08 09:42:51;;;;;;;5.30;2.10;;;;;;;1.05;72.14;98732.98;105104;1274;75524;-23
2022/02/08 09:45:20;;;;;;;4.30;2.00;;;;;;;1.05;72.62;98730.39;104853;1274;74586;-23
2022/02/08 09:48:01;;;;;;;4.60;2.00;;;;;;;0.95;73.26;98727.12;104864;1271;72754;-23
2022/02/08 09:50:33;;;;;;;4.80;2.00;;;;;;;0.75;73.99;98725.78;104713;1271;60974;-23
2022/02/08 09:53:02;;;;;;;6.90;2.50;;;;;;;0.50;75.12;98729.84;104887;1271;61881;-23
2022/02/08 09:55:36;;;;;;;4.90;2.30;;;;;;;0.54;75.56;98732.58;104731;1271;75741;-23
2022/02/08 09:58:05;;;;;;;3.60;1.40;;;;;;;0.45;75.70;98731.94;104755;1271;76052;-23
2022/02/08 10:00:35;;;;;;;4.40;2.80;;;;;;;0.82;74.15;98723.77;104749;1271;74420;-22
2022/02/08 10:03:08;;;;;;;6.90;2.40;;;;;;;1.05;73.05;98730.23;104752;1271;61938;-23
2022/02/08 10:05:53;;;;;;;7.40;2.40;;;;;;;1.01;72.81;98728.52;104809;1274;61770;-23
2022/02/08 10:08:22;;;;;;;2.90;1.80;;;;;;;0.84;73.45;98733.26;104740;1272;75657;-24
2022/02/08 10:10:51;;;;;;;4.20;2.00;;;;;;;0.76;74.24;98734.81;104793;1271;71943;-23
2022/02/08 10:19:17;;;;;;;8.80;2.80;;;;;;;0.37;75.11;98733.17;104889;1274;61091;-23
2022/02/08 10:21:46;;;;;;;8.30;2.40;;;;;;;1.02;73.78;98736.15;104833;1271;75565;-23
2022/02/08 10:24:16;;;;;;;3.80;2.00;;;;;;;1.07;72.23;98730.63;105061;1271;74622;-23
2022/02/08 10:29:38;;;;;;;5.10;1.40;;;;;;;1.19;69.97;98729.55;104932;1271;61139;-23
2022/02/08 10:37:47;;;;;;;6.10;2.10;;;;;;;0.87;69.47;98744.41;105105;1271;75730;-24
2022/02/08 10:40:18;;;;;;;7.80;1.70;;;;;;;0.81;70.15;98744.70;105023;1274;73445;-24
2022/02/08 10:42:54;;;;;;;6.30;2.10;;;;;;;0.86;70.79;98741.90;104902;1272;61035;-23
2022/02/08 10:45:31;;;;;;;5.20;2.10;;;;;;;0.77;71.17;98744.31;105050;1271;61139;-23
2022/02/08 10:48:01;;;;;;;5.40;2.10;;;;;;;0.63;71.73;98741.88;104869;1270;74695;-23
2022/02/08 10:50:35;;;;;;;6.00;2.00;;;;;;;0.80;71.55;98739.08;104965;1272;76239;-23
2022/02/08 10:53:05;;;;;;;4.30;1.80;;;;;;;1.11;70.21;98736.77;104779;1271;74579;-23
2022/02/08 10:58:16;;;;;;;4.00;1.90;;;;;;;1.30;70.68;98745.30;104873;1271;61298;-23
2022/02/08 11:00:52;;;;;;;5.40;2.60;;;;;;;1.14;71.34;98743.14;104788;1271;75872;-23
2022/02/08 11:03:36;;;;;;;3.90;1.60;;;;;;;0.88;71.32;98740.26;104865;1271;75005;-23
2022/02/08 11:12:08;;;;;;;6.10;2.00;;;;;;;0.64;73.27;98743.20;104838;1271;61148;-23
2022/02/08 11:20:33;;;;;;;5.40;2.10;;;;;;;1.03;71.89;98748.79;104958;1271;73073;-23
2022/02/08 11:23:12;;;;;;;4.80;2.20;;;;;;;1.09;72.53;98756.55;104891;1274;61515;-22
2022/02/08 11:25:45;;;;;;;6.50;2.70;;;;;;;1.11;72.74;98756.48;105037;1271;61140;-22
2022/02/08 11:31:20;;;;;;;6.20;2.30;;;;;;;1.01;74.50;98750.94;104989;1274;75744;-22
2022/02/08 11:40:08;;;;;;;10.00;2.90;;;;;;;1.99;71.82;98744.97;104973;1271;61999;-23
2022/02/08 11:56:44;;;;;;;4.90;2.60;;;;;;;0.88;75.31;98750.69;104792;1271;75306;-22
2022/02/08 11:59:09;;;;;;;6.20;3.50;;;;;;;1.41;74.24;98756.07;104664;1271;76070;-22
2022/02/08 12:02:02;;;;;;;7.10;2.90;;;;;;;1.52;73.04;98756.73;105045;1272;73422;-22
2022/02/08 12:04:57;;;;;;;9.10;4.10;;;;;;;1.51;73.57;98751.82;105093;1272;62390;-23
2022/02/08 12:07:25;;;;;;;9.10;3.40;;;;;;;1.37;73.63;98748.55;105117;1271;61244;-22
2022/02/08 12:28:23;;;;;;;5.30;2.00;;;;;;;1.85;72.70;98750.33;105079;1271;75024;-24
2022/02/08 13:00:09;;;;;;;10.50;3.50;;;;;;;2.08;73.64;98751.71;104812;1274;61078;-22
2022/02/08 13:03:42;;;;;;;7.00;2.90;;;;;;;1.94;73.88;98748.00;104831;1271;61174;-22
2022/02/08 14:05:05;;;;;;;15.10;4.80;;;;;;;1.34;74.16;98759.45;105010;1271;75019;-23
2022/02/08 14:10:03;;;;;;;9.50;2.70;;;;;;;1.03;74.17;98755.98;104875;1271;61864;-23
2022/02/08 15:10:21;;;;;;;6.90;2.70;;;;;;;1.67;75.10;98752.20;104805;1271;75491;-22
2022/02/08 15:12:56;;;;;;;8.90;3.30;;;;;;;1.67;74.59;98748.77;104956;1271;75003;-22
2022/02/08 15:16:29;;;;;;;5.90;2.40;;;;;;;1.46;74.97;98752.05;104910;1271;74242;-24
2022/02/08 15:18:23;;;;;;;6.70;3.00;;;;;;;1.29;75.46;98749.77;104767;1271;61182;-23
2022/02/08 15:20:51;;;;;;;4.60;2.80;;;;;;;1.06;76.35;98752.06;104891;1271;61098;-25
2022/02/08 15:23:34;;;;;;;10.50;2.60;;;;;;;0.90;76.51;98750.06;105000;1274;75513;-22
2022/02/08 15:26:04;;;;;;;11.80;3.10;;;;;;;0.97;76.38;98744.08;105025;1271;75892;-23
2022/02/08 15:28:32;;;;;;;5.50;2.30;;;;;;;1.42;74.65;98751.05;105099;1271;74748;-23
2022/02/08 15:31:01;;;;;;;6.20;2.70;;;;;;;1.62;73.88;98747.00;105011;1272;61145;-23
2022/02/08 15:33:29;;;;;;;7.80;2.50;;;;;;;1.54;73.73;98745.48;105201;1271;61125;-23
2022/02/08 15:35:58;;;;;;;6.50;2.30;;;;;;;1.33;74.29;98745.48;105119;1274;74760;-23
2022/02/08 15:38:32;;;;;;;13.00;3.00;;;;;;;1.23;74.45;98744.42;105104;1271;76327;-23
2022/02/08 15:41:02;;;;;;;5.50;2.30;;;;;;;0.98;75.19;98747.63;105076;1271;74399;-23
2022/02/08 15:43:31;;;;;;;8.70;1.90;;;;;;;0.90;75.75;98751.61;105130;1271;61160;-22
2022/02/08 15:46:13;;;;;;;7.10;1.90;;;;;;;1.05;75.69;98746.83;105063;1272;61026;-23
2022/02/08 15:48:44;;;;;;;5.10;2.10;;;;;;;1.61;73.16;98741.23;105116;1271;73924;-23
2022/02/08 15:51:18;;;;;;;6.90;2.10;;;;;;;1.62;72.39;98733.48;105084;1271;75043;-23
2022/02/08 15:53:56;;;;;;;2.10;1.30;;;;;;;1.48;72.56;98732.62;104783;1271;74338;-23
2022/02/08 16:20:39;;;;;;;1.10;0.80;;;;;;;0.77;71.18;98742.77;104900;1271;74333;-23
2022/02/08 16:58:25;;;;;;;1.90;0.40;;;;;;;1.10;68.23;98750.84;104886;1274;76008;-24
2022/02/08 17:00:58;;;;;;;2.50;1.30;;;;;;;1.10;68.68;98748.48;104799;1274;74388;-22
2022/02/08 17:03:44;;;;;;;7.30;1.10;;;;;;;0.86;70.31;98747.38;104772;1272;61212;-22
2022/02/08 17:06:26;;;;;;;2.80;0.90;;;;;;;0.63;71.97;98746.51;104727;1271;61132;-22
2022/02/08 17:09:18;;;;;;;4.40;1.20;;;;;;;0.51;72.94;98750.79;104786;1274;75617;-24
2022/02/08 17:11:54;;;;;;;4.80;1.70;;;;;;;0.41;73.46;98755.36;104920;1274;74424;-24
2022/02/08 17:48:04;;;;;;;5.90;2.20;;;;;;;1.16;71.85;98731.10;105145;1274;61009;-22
2022/02/08 17:50:32;;;;;;;3.50;1.60;;;;;;;0.93;73.06;98725.66;104845;1274;74053;-22
2022/02/08 17:53:01;;;;;;;5.00;2.30;;;;;;;0.77;73.33;98725.02;105091;1274;75899;-22
2022/02/08 17:55:29;;;;;;;8.20;2.30;;;;;;;0.62;74.21;98731.50;105089;1273;74354;-22
2022/02/08 17:58:00;;;;;;;6.00;2.30;;;;;;;0.47;74.69;98721.78;105142;1274;61099;-22
2022/02/08 18:00:32;;;;;;;8.30;2.60;;;;;;;0.33;75.20;98719.66;105080;1274;60964;-22
2022/02/08 18:03:04;;;;;;;4.50;2.00;;;;;;;0.35;75.52;98721.27;105118;1274;71831;-23
2022/02/08 18:05:34;;;;;;;;;;;;;;;1.05;73.32;98721.34;105137;1273;75985;-22
2022/02/08 18:08:03;;;;;;;2.80;1.50;;;;;;;1.42;71.58;98722.66;104987;1274;74460;-22
2022/02/08 18:10:32;;;;;;;4.50;2.30;;;;;;;1.35;71.29;98721.96;105000;1274;61141;-22
2022/02/08 18:13:03;;;;;;;4.00;2.00;;;;;;;1.21;72.06;98726.55;105113;1274;61026;-22
2022/02/08 18:15:59;;;;;;;8.70;2.70;;;;;;;0.94;72.77;98718.95;104952;1274;76558;-24
2022/02/08 18:18:39;;;;;;;3.10;2.00;;;;;;;0.66;73.97;98721.41;104908;1274;75045;-23
2022/02/08 19:07:50;;;;;;;4.60;2.10;;;;;;;0.25;75.04;98683.14;105110;1271;61026;-24
2022/02/08 19:23:36;;;;;;;4.90;2.10;;;;;;;0.80;73.08;98673.14;105080;1271;74869;-23
2022/02/08 19:26:05;;;;;;;5.30;2.30;;;;;;;0.53;74.15;98672.48;104933;1271;74528;-24
2022/02/08 19:28:35;;;;;;;3.80;1.50;;;;;;;0.34;75.10;98667.73;105057;1271;74256;-23
2022/02/08 19:31:06;;;;;;;6.00;2.00;;;;;;;0.13;75.90;98666.11;105100;1271;61140;-23
2022/02/08 19:33:36;;;;;;;4.10;2.10;;;;;;;-0.01;76.53;98661.59;105117;1271;62035;-23
2022/02/08 19:36:05;;;;;;;5.70;1.80;;;;;;;-0.11;76.96;98663.02;105128;1271;75583;-23
2022/02/08 19:38:38;;;;;;;7.60;1.70;;;;;;;0.42;75.83;98660.84;105142;1271;76018;-23
2022/02/08 19:41:08;;;;;;;5.60;2.20;;;;;;;1.00;73.69;98653.90;105132;1271;72293;-24
2022/02/08 19:43:36;;;;;;;5.90;2.20;;;;;;;1.07;72.94;98649.80;104872;1271;61079;-23
2022/02/08 19:46:05;;;;;;;4.30;2.00;;;;;;;0.90;73.18;98646.15;104770;1271;61096;-23
2022/02/08 19:48:34;;;;;;;5.50;2.20;;;;;;;0.71;74.03;98643.27;104920;1271;75270;-23
2022/02/08 19:51:02;;;;;;;3.60;1.60;;;;;;;0.50;74.83;98636.89;104908;1271;75989;-23
2022/02/08 19:53:33;;;;;;;5.20;2.00;;;;;;;0.33;75.63;98633.77;104875;1271;74527;-23
2022/02/08 19:58:53;;;;;;;4.30;1.70;;;;;;;0.19;76.70;98630.84;104935;1271;61150;-23
2022/02/08 20:01:31;;;;;;;4.90;1.60;;;;;;;0.82;74.91;98629.25;105083;1271;75870;-23
2022/02/08 20:04:05;;;;;;;6.90;1.80;;;;;;;1.28;73.02;98628.05;104928;1271;75954;-23
2022/02/08 20:06:34;;;;;;;4.90;2.00;;;;;;;1.26;72.38;98623.88;104672;1271;73311;-23
2022/02/08 20:09:05;;;;;;;10.10;2.60;;;;;;;1.10;72.64;98620.23;104911;1271;61167;-23
2022/02/08 20:11:36;;;;;;;8.00;2.50;;;;;;;0.88;73.63;98613.40;104880;1271;61836;-23